createdAt,value
2019-04-23T00:03:05.501Z,101162.23
2019-04-23T00:05:51.452Z,101156.81
2019-04-23T00:08:17.521Z,101156.76
2019-04-23T00:10:42.553Z,101161.25
2019-04-23T00:13:24.768Z,101149.19
2019-04-23T00:16:02.997Z,101149.94
2019-04-23T00:18:36.826Z,101150.00
2019-04-23T00:21:38.146Z,101151.41
2019-04-23T00:24:19.271Z,101152.51
2019-04-23T00:26:42.949Z,101156.11
2019-04-23T00:29:11.709Z,101148.91
2019-04-23T00:31:44.281Z,101143.83
2019-04-23T00:34:15.803Z,101140.33
2019-04-23T00:36:51.605Z,101139.27
2019-04-23T00:39:23.451Z,101140.22
2019-04-23T00:41:54.639Z,101139.63
2019-04-23T00:44:37.780Z,101143.99
2019-04-23T00:46:57.485Z,101143.77
2019-04-23T00:49:37.085Z,101136.84
2019-04-23T00:52:09.453Z,101137.97
2019-04-23T00:54:32.662Z,101133.05
2019-04-23T00:57:07.487Z,101129.10
2019-04-23T00:59:52.196Z,101130.83
2019-04-23T01:02:14.193Z,101136.36
2019-04-23T01:04:51.029Z,101119.13
2019-04-23T01:07:22.458Z,101141.08
2019-04-23T01:10:06.159Z,101135.52
2019-04-23T01:12:36.142Z,101137.97
2019-04-23T01:15:02.509Z,101137.06
2019-04-23T01:17:39.448Z,101132.45
2019-04-23T01:20:09.740Z,101134.91
2019-04-23T01:22:23.244Z,101133.80
2019-04-23T01:25:19.500Z,101131.27
2019-04-23T01:28:11.039Z,101125.84
2019-04-23T01:30:49.229Z,101133.95
2019-04-23T01:33:29.604Z,101124.63
2019-04-23T01:36:03.162Z,101130.74
2019-04-23T01:38:31.459Z,101129.41
2019-04-23T01:40:53.819Z,101118.45
2019-04-23T01:43:30.239Z,101117.06
2019-04-23T01:46:01.034Z,101119.91
2019-04-23T01:48:39.181Z,101118.91
2019-04-23T01:50:56.030Z,101114.13
2019-04-23T01:56:13.983Z,101101.03
2019-04-23T02:06:28.134Z,101104.13
2019-04-23T02:08:56.790Z,101100.72
2019-04-23T02:11:28.585Z,101097.06
2019-04-23T02:13:55.333Z,101099.09
2019-04-23T02:16:30.122Z,101093.56
2019-04-23T02:19:03.647Z,101098.17
2019-04-23T02:21:35.252Z,101091.95
2019-04-23T02:24:09.051Z,101091.88
2019-04-23T02:26:39.875Z,101092.69
2019-04-23T02:29:15.945Z,101089.08
2019-04-23T02:31:58.252Z,101089.25
2019-04-23T02:34:35.831Z,101087.73
2019-04-23T02:36:57.294Z,101080.61
2019-04-23T02:39:31.184Z,101086.45
2019-04-23T02:42:07.412Z,101084.30
2019-04-23T02:44:24.245Z,101077.07
2019-04-23T02:47:10.347Z,101078.52
2019-04-23T02:54:46.677Z,101078.50
2019-04-23T02:57:09.349Z,101074.30
2019-04-23T03:04:52.228Z,101070.55
2019-04-23T03:07:34.293Z,101068.66
2019-04-23T03:12:31.850Z,101071.34
2019-04-23T03:15:20.981Z,101062.95
2019-04-23T03:18:11.929Z,101059.88
2019-04-23T03:20:53.189Z,101058.93
2019-04-23T03:23:25.262Z,101049.41
2019-04-23T03:26:01.932Z,101046.45
2019-04-23T03:28:49.410Z,101045.98
2019-04-23T03:41:27.886Z,101048.29
2019-04-23T03:43:42.416Z,101046.09
2019-04-23T03:48:51.227Z,101046.09
2019-04-23T03:51:26.411Z,101037.41
2019-04-23T03:54:03.997Z,101032.92
2019-04-23T03:59:27.139Z,101035.89
2019-04-23T04:01:37.656Z,101040.84
2019-04-23T04:06:48.103Z,101037.92
2019-04-23T04:09:33.163Z,101030.37
2019-04-23T04:11:42.171Z,101033.52
2019-04-23T04:29:40.350Z,101036.75
2019-04-23T04:32:00.569Z,101034.25
2019-04-23T04:35:07.396Z,101031.97
2019-04-23T04:37:35.560Z,101032.41
2019-04-23T04:40:07.182Z,101028.91
2019-04-23T04:47:36.645Z,101030.92
2019-04-23T04:49:59.739Z,101031.95
2019-04-23T04:52:46.969Z,101021.34
2019-04-23T04:55:00.108Z,101020.70
2019-04-23T04:57:40.254Z,101011.70
2019-04-23T05:00:13.318Z,101023.23
2019-04-23T05:02:53.887Z,101023.16
2019-04-23T05:05:37.983Z,101016.19
2019-04-23T05:07:48.207Z,101016.00
2019-04-23T05:10:28.853Z,101012.28
2019-04-23T05:12:52.195Z,101009.97
2019-04-23T05:15:17.228Z,101001.44
2019-04-23T05:25:47.882Z,101005.91
2019-04-23T05:28:28.458Z,101011.05
2019-04-23T05:30:52.114Z,101008.27
2019-04-23T05:33:22.384Z,101008.27
2019-04-23T05:36:15.563Z,101009.09
2019-04-23T05:38:37.701Z,101012.09
2019-04-23T05:41:03.741Z,101011.08
2019-04-23T05:43:32.399Z,100996.36
2019-04-23T05:46:09.631Z,100980.17
2019-04-23T05:48:37.716Z,100983.97
2019-04-23T05:51:14.260Z,100993.38
2019-04-23T05:53:42.509Z,100992.69
2019-04-23T05:56:15.549Z,100980.06
2019-04-23T05:58:48.944Z,100975.02
2019-04-23T06:06:37.523Z,100990.09
2019-04-23T06:09:09.162Z,100987.80
2019-04-23T06:11:47.027Z,100983.20
2019-04-23T06:14:17.361Z,100987.75
2019-04-23T06:16:54.833Z,100986.29
2019-04-23T06:24:29.273Z,100990.78
2019-04-23T06:36:58.794Z,100973.54
2019-04-23T06:39:36.726Z,100975.23
2019-04-23T06:42:03.876Z,100971.90
2019-04-23T06:47:12.952Z,100966.85
2019-04-23T06:49:49.473Z,100967.21
2019-04-23T06:52:18.979Z,100962.91
2019-04-23T06:54:56.210Z,100968.61
2019-04-23T06:59:52.658Z,100968.02
2019-04-23T07:02:30.874Z,100952.09
2019-04-23T07:05:03.300Z,100960.58
2019-04-23T07:07:46.580Z,100951.25
2019-04-23T07:10:05.490Z,100938.53
2019-04-23T07:12:36.486Z,100936.97
2019-04-23T07:15:25.084Z,100947.39
2019-04-23T07:17:34.804Z,100935.02
2019-04-23T07:20:15.351Z,100933.39
2019-04-23T07:22:46.828Z,100926.28
2019-04-23T07:25:17.591Z,100923.61
2019-04-23T07:27:53.118Z,100919.22
2019-04-23T07:30:24.096Z,100920.06
2019-04-23T07:32:57.251Z,100907.30
2019-04-23T07:35:35.865Z,100904.52
2019-04-23T07:38:20.668Z,100901.27
2019-04-23T07:40:40.992Z,100904.55
2019-04-23T07:43:23.400Z,100890.64
2019-04-23T07:46:19.893Z,100894.39
2019-04-23T07:48:43.737Z,100886.38
2019-04-23T07:51:14.565Z,100882.64
2019-04-23T07:53:53.508Z,100879.73
2019-04-23T07:56:25.118Z,100878.81
2019-04-23T07:58:58.316Z,100878.94
2019-04-23T08:01:26.778Z,100869.06
2019-04-23T08:04:18.239Z,100867.69
2019-04-23T08:06:31.886Z,100867.33
2019-04-23T08:09:06.278Z,100870.31
2019-04-23T08:11:52.413Z,100868.13
2019-04-23T08:14:02.121Z,100869.97
2019-04-23T08:19:17.080Z,100868.44
2019-04-23T08:21:40.210Z,100863.70
2019-04-23T08:24:38.490Z,100848.58
2019-04-23T08:27:18.129Z,100852.04
2019-04-23T08:29:48.895Z,100846.51
2019-04-23T08:32:19.462Z,100853.05
2019-04-23T08:37:34.702Z,100832.34
2019-04-23T08:40:04.731Z,100852.38
2019-04-23T08:50:44.109Z,100818.19
2019-04-23T08:55:53.670Z,100819.74
2019-04-23T08:58:36.855Z,100812.35
2019-04-23T09:01:00.601Z,100807.38
2019-04-23T09:03:33.297Z,100807.54
2019-04-23T09:06:06.148Z,100800.82
2019-04-23T09:11:19.937Z,100799.59
2019-04-23T09:16:09.031Z,100803.42
2019-04-23T09:18:45.965Z,100800.34
2019-04-23T09:21:14.066Z,100797.41
2019-04-23T09:26:24.361Z,100789.63
2019-04-23T09:29:17.302Z,100783.88
2019-04-23T09:34:31.656Z,100767.91
2019-04-23T09:37:06.342Z,100768.69
2019-04-23T09:39:43.035Z,100772.86
2019-04-23T09:42:38.405Z,100765.05
2019-04-23T09:45:26.897Z,100765.02
2019-04-23T09:48:11.068Z,100748.88
2019-04-23T09:50:38.474Z,100762.33
2019-04-23T09:55:41.641Z,100755.98
2019-04-23T09:58:15.420Z,100742.37
2019-04-23T10:00:51.514Z,100741.55
2019-04-23T10:03:21.077Z,100733.03
2019-04-23T10:05:49.060Z,100725.25
2019-04-23T10:08:19.323Z,100728.43
2019-04-23T10:10:47.078Z,100727.36
2019-04-23T10:13:19.900Z,100715.02
2019-04-23T10:15:52.103Z,100724.36
2019-04-23T10:18:24.463Z,100709.24
2019-04-23T10:20:54.417Z,100701.28
2019-04-23T10:23:25.225Z,100707.41
2019-04-23T10:25:56.363Z,100702.66
2019-04-23T10:28:45.015Z,100701.58
2019-04-23T10:31:14.640Z,100687.17
2019-04-23T10:33:46.285Z,100677.32
2019-04-23T10:36:19.907Z,100664.62
2019-04-23T10:38:55.943Z,100658.84
2019-04-23T10:41:22.531Z,100663.91
2019-04-23T10:43:58.692Z,100659.35
2019-04-23T10:47:32.090Z,100655.43
2019-04-23T10:52:33.732Z,100656.45
2019-04-23T10:55:06.640Z,100646.42
2019-04-23T10:57:31.193Z,100663.22
2019-04-23T11:00:12.595Z,100652.81
2019-04-23T11:03:12.061Z,100646.15
2019-04-23T11:05:37.739Z,100642.16
2019-04-23T11:07:50.456Z,100636.50
2019-04-23T11:10:23.542Z,100640.82
2019-04-23T11:12:50.729Z,100640.33
2019-04-23T11:18:08.840Z,100625.41
2019-04-23T11:20:45.308Z,100624.05
2019-04-23T11:23:01.561Z,100628.66
2019-04-23T11:28:13.316Z,100619.80
2019-04-23T11:31:09.379Z,100607.79
2019-04-23T11:33:19.920Z,100610.48
2019-04-23T11:36:19.900Z,100603.36
2019-04-23T11:41:00.140Z,100606.91
2019-04-23T11:46:19.437Z,100603.88
2019-04-23T11:48:51.951Z,100593.19
2019-04-23T11:56:32.525Z,100597.58
2019-04-23T11:58:44.635Z,100597.19
2019-04-23T12:04:48.056Z,100603.16
2019-04-23T12:07:26.386Z,100582.17
2019-04-23T12:10:07.646Z,100590.27
2019-04-23T12:15:03.514Z,100585.18
2019-04-23T12:17:45.997Z,100576.58
2019-04-23T12:20:14.860Z,100570.72
2019-04-23T12:22:51.782Z,100584.38
2019-04-23T12:25:32.852Z,100571.84
2019-04-23T12:27:59.751Z,100559.70
2019-04-23T12:30:25.233Z,100566.75
2019-04-23T12:35:24.018Z,100561.76
2019-04-23T12:40:44.217Z,100534.98
2019-04-23T12:43:17.338Z,100547.89
2019-04-23T12:45:42.489Z,100551.11
2019-04-23T12:55:57.389Z,100527.77
2019-04-23T12:58:26.932Z,100517.93
2019-04-23T13:01:00.504Z,100501.19
2019-04-23T13:05:59.257Z,100502.38
2019-04-23T13:11:13.974Z,100506.75
2019-04-23T13:13:50.300Z,100500.69
2019-04-23T13:16:16.368Z,100497.13
2019-04-23T13:18:52.472Z,100490.19
2019-04-23T13:21:46.734Z,100497.98
2019-04-23T13:24:20.548Z,100476.45
2019-04-23T13:26:44.550Z,100482.25
2019-04-23T13:29:34.527Z,100479.38
2019-04-23T13:31:56.789Z,100481.05
2019-04-23T13:34:42.860Z,100464.95
2019-04-23T13:37:00.708Z,100463.95
2019-04-23T13:39:41.805Z,100455.99
2019-04-23T13:42:15.960Z,100458.86
2019-04-23T13:44:43.891Z,100449.02
2019-04-23T13:47:25.738Z,100444.10
2019-04-23T13:49:55.246Z,100444.78
2019-04-23T13:52:43.268Z,100436.68
2019-04-23T13:55:04.371Z,100450.53
2019-04-23T13:59:57.834Z,100432.57
2019-04-23T14:02:34.487Z,100427.15
2019-04-23T14:05:26.767Z,100434.60
2019-04-23T14:07:56.519Z,100421.73
2019-04-23T14:10:29.471Z,100412.05
2019-04-23T14:15:42.814Z,100412.73
2019-04-23T14:18:22.766Z,100396.10
2019-04-23T14:20:31.600Z,100399.87
2019-04-23T14:25:50.552Z,100382.38
2019-04-23T14:30:59.151Z,100405.58
2019-04-23T14:33:17.723Z,100389.52
2019-04-23T14:35:45.901Z,100378.98
2019-04-23T14:43:22.517Z,100374.49
2019-04-23T14:46:38.513Z,100363.48
2019-04-23T14:48:51.787Z,100376.03
2019-04-23T14:51:32.148Z,100369.68
2019-04-23T14:53:48.482Z,100358.66
2019-04-23T14:59:04.394Z,100357.02
2019-04-23T15:03:57.644Z,100346.41
2019-04-23T15:06:39.871Z,100354.45
2019-04-23T15:09:19.759Z,100350.34
2019-04-23T15:11:48.590Z,100337.30
2019-04-23T15:14:11.988Z,100339.95
2019-04-23T15:16:43.102Z,100353.90
2019-04-23T15:22:04.652Z,100341.19
2019-04-23T15:24:26.005Z,100354.58
2019-04-23T15:29:20.135Z,100341.36
2019-04-23T15:32:13.810Z,100341.22
2019-04-23T15:34:48.896Z,100341.39
2019-04-23T15:37:20.379Z,100322.92
2019-04-23T15:39:50.508Z,100338.55
2019-04-23T15:42:16.722Z,100326.34
2019-04-23T15:44:48.802Z,100325.81
2019-04-23T15:47:33.034Z,100313.26
2019-04-23T15:49:57.424Z,100321.53
2019-04-23T15:52:18.928Z,100309.63
2019-04-23T15:54:57.002Z,100323.77
2019-04-23T15:57:40.181Z,100318.32
2019-04-23T15:59:55.995Z,100329.84
2019-04-23T16:01:59.911Z,100314.61
2019-04-23T16:04:29.794Z,100316.46
2019-04-23T16:07:02.350Z,100323.73
2019-04-23T16:10:14.448Z,100318.63
2019-04-23T16:12:31.810Z,100330.18
2019-04-23T16:17:37.075Z,100326.66
2019-04-23T16:20:27.292Z,100341.40
2019-04-23T16:22:44.421Z,100345.69
2019-04-23T16:25:17.472Z,100347.02
2019-04-23T16:27:59.089Z,100324.33
2019-04-23T16:36:19.918Z,100331.25
2019-04-23T16:41:07.689Z,100339.84
2019-04-23T16:46:11.823Z,100335.79
2019-04-23T16:48:53.244Z,100336.14
2019-04-23T16:51:29.676Z,100330.88
2019-04-23T16:53:46.329Z,100333.91
2019-04-23T16:58:54.818Z,100335.27
2019-04-23T17:01:35.363Z,100334.72
2019-04-23T17:03:56.430Z,100335.05
2019-04-23T17:06:29.328Z,100325.75
2019-04-23T17:11:49.066Z,100331.66
2019-04-23T17:14:09.870Z,100334.67
2019-04-23T17:16:36.033Z,100331.81
2019-04-23T17:19:13.300Z,100334.88
2019-04-23T17:21:38.485Z,100326.41
2019-04-23T17:24:21.175Z,100323.00
2019-04-23T17:26:46.118Z,100344.11
2019-04-23T17:31:45.356Z,100333.62
2019-04-23T17:34:30.484Z,100328.66
2019-04-23T17:37:13.616Z,100329.48
2019-04-23T17:40:18.161Z,100333.36
2019-04-23T17:48:34.965Z,100332.20
2019-04-23T17:51:10.992Z,100329.63
2019-04-23T17:53:56.175Z,100321.84
2019-04-23T17:58:52.531Z,100314.19
2019-04-23T18:01:20.175Z,100332.70
2019-04-23T18:03:55.605Z,100327.45
2019-04-23T18:09:00.339Z,100328.80
2019-04-23T18:14:02.688Z,100330.08
2019-04-23T18:16:40.757Z,100325.36
2019-04-23T18:19:07.735Z,100343.52
2019-04-23T18:22:01.830Z,100323.91
2019-04-23T18:24:56.081Z,100339.20
2019-04-23T18:27:19.153Z,100332.28
2019-04-23T18:30:11.750Z,100335.52
2019-04-23T18:33:43.876Z,100342.62
2019-04-23T18:38:18.543Z,100347.45
2019-04-23T18:40:58.900Z,100344.75
2019-04-23T18:45:54.024Z,100353.22
2019-04-23T18:51:05.211Z,100346.59
2019-04-23T18:56:06.532Z,100357.49
2019-04-23T18:58:52.183Z,100358.23
2019-04-23T19:04:05.754Z,100352.31
2019-04-23T19:06:41.133Z,100355.70
2019-04-23T19:10:11.068Z,100363.77
2019-04-23T19:12:44.398Z,100362.66
2019-04-23T19:15:13.903Z,100357.67
2019-04-23T19:20:35.330Z,100358.98
2019-04-23T19:22:53.045Z,100356.81
2019-04-23T19:25:23.299Z,100368.86
2019-04-23T19:30:37.052Z,100364.86
2019-04-23T19:33:25.390Z,100368.36
2019-04-23T19:40:56.794Z,100355.41
2019-04-23T19:43:25.157Z,100370.88
2019-04-23T19:46:03.548Z,100350.20
2019-04-23T19:48:33.488Z,100376.39
2019-04-23T19:51:02.713Z,100368.46
2019-04-23T19:53:44.980Z,100375.78
2019-04-23T20:01:21.067Z,100361.23
2019-04-23T20:06:19.332Z,100363.63
2019-04-23T20:11:21.802Z,100368.52
2019-04-23T20:16:30.182Z,100350.99
2019-04-23T20:19:10.077Z,100356.30
2019-04-23T20:21:30.567Z,100349.37
2019-04-23T20:26:23.516Z,100350.20
2019-04-23T20:37:12.906Z,100347.41
2019-04-23T20:39:50.650Z,100344.49
2019-04-23T20:45:06.080Z,100342.67
2019-04-23T20:47:30.745Z,100334.94
2019-04-23T20:50:03.418Z,100336.43
2019-04-23T20:52:22.168Z,100341.63
2019-04-23T20:55:02.077Z,100337.30
2019-04-23T20:57:55.324Z,100326.90
2019-04-23T21:00:43.247Z,100330.38
2019-04-23T21:05:36.728Z,100324.06
2019-04-23T21:13:29.434Z,100323.00
2019-04-23T21:15:52.631Z,100315.01
2019-04-23T21:18:22.045Z,100320.23
2019-04-23T21:20:50.100Z,100313.31
2019-04-23T21:23:17.691Z,100314.92
2019-04-23T21:25:52.565Z,100323.37
2019-04-23T21:28:40.197Z,100316.41
2019-04-23T21:31:22.832Z,100328.87
2019-04-23T21:34:05.799Z,100321.23
2019-04-23T21:36:51.077Z,100315.77
2019-04-23T21:39:53.522Z,100327.80
2019-04-23T21:42:24.140Z,100316.35
2019-04-23T21:45:28.531Z,100316.23
2019-04-23T21:48:06.532Z,100311.19
2019-04-23T21:50:45.586Z,100305.95
2019-04-23T21:53:04.497Z,100298.66
2019-04-23T21:55:38.963Z,100304.95
2019-04-23T21:58:07.550Z,100311.67
2019-04-23T22:00:46.218Z,100309.05
2019-04-23T22:03:11.758Z,100309.56
2019-04-23T22:05:42.453Z,100302.67
2019-04-23T22:10:45.616Z,100307.87
2019-04-23T22:15:54.687Z,100309.02
2019-04-23T22:18:12.916Z,100302.90
2019-04-23T22:20:49.299Z,100299.19
2019-04-23T22:23:18.330Z,100300.73
2019-04-23T22:25:56.892Z,100297.56
2019-04-23T22:28:18.050Z,100296.78
2019-04-23T22:30:54.949Z,100301.02
2019-04-23T22:33:26.784Z,100304.96
2019-04-23T22:38:30.199Z,100302.08
2019-04-23T22:44:02.448Z,100304.42
2019-04-23T22:46:16.327Z,100295.35
2019-04-23T22:48:51.298Z,100298.91
2019-04-23T22:51:31.572Z,100293.67
2019-04-23T22:53:52.303Z,100292.58
2019-04-23T22:56:24.910Z,100293.88
2019-04-23T22:58:56.359Z,100285.81
2019-04-23T23:01:25.985Z,100289.84
2019-04-23T23:04:04.977Z,100294.44
2019-04-23T23:09:22.857Z,100288.27
2019-04-23T23:11:49.073Z,100286.78
2019-04-23T23:16:54.827Z,100274.03
2019-04-23T23:21:58.241Z,100275.48
2019-04-23T23:29:20.286Z,100275.72
2019-04-23T23:32:17.241Z,100273.18
2019-04-23T23:34:41.953Z,100272.32
2019-04-23T23:39:49.574Z,100273.32
2019-04-23T23:42:11.199Z,100271.80
2019-04-23T23:44:58.300Z,100264.36
2019-04-23T23:47:38.154Z,100272.42
2019-04-23T23:49:54.522Z,100264.45
2019-04-23T23:52:27.009Z,100257.60
2019-04-23T23:54:52.931Z,100252.23
2019-04-23T23:57:23.541Z,100261.14
